Time;durP1;ratioP1;P1;durP2;ratioP2;P2;SDS_P1;SDS_P2;PMS_P1;PMS_P2;Temp;Humidity;BMP_temperature;BMP_pressure;BME280_temperature;BME280_humidity;BME280_pressure;Samples;Min_cycle;Max_cycle;Signal;HPM_P1;HPM_P2
2023/08/12 06:58:47;;;;;;;5.10;1.33;;;24.00;98.40;;;;;;7415330;19;20078;-79
2023/08/12 07:01:31;;;;;;;8.15;1.42;;;23.90;98.20;;;;;;7414234;19;20224;-79
2023/08/12 07:04:15;;;;;;;3.83;1.40;;;23.90;98.50;;;;;;7415810;19;20014;-81
2023/08/12 07:10:24;;;;;;;3.13;1.40;;;24.00;98.50;;;;;;7314171;19;2004483;-80
2023/08/12 07:12:56;;;;;;;2.30;1.30;;;23.90;98.70;;;;;;7416070;19;20002;-78
2023/08/12 07:15:33;;;;;;;1.23;1.13;;;24.00;98.40;;;;;;7416648;19;20007;-78
2023/08/12 07:18:04;;;;;;;5.63;1.45;;;24.00;98.40;;;;;;7418615;19;20036;-79
2023/08/12 07:20:36;;;;;;;5.05;1.73;;;24.10;98.50;;;;;;7421470;19;20356;-77
2023/08/12 07:23:09;;;;;;;4.07;1.08;;;24.20;98.50;;;;;;7420212;19;20339;-77
2023/08/12 07:25:38;;;;;;;3.63;1.50;;;24.30;98.30;;;;;;7439878;19;20017;-77
2023/08/12 07:28:09;;;;;;;2.65;1.58;;;24.30;98.30;;;;;;7415829;19;20292;-77
2023/08/12 07:30:38;;;;;;;4.53;1.30;;;24.10;98.00;;;;;;7415066;19;20103;-77
2023/08/12 07:33:07;;;;;;;1.85;1.40;;;24.10;98.00;;;;;;7412807;19;20060;-78
2023/08/12 07:35:36;;;;;;;2.28;1.20;;;24.20;98.20;;;;;;7411515;19;20042;-76
2023/08/12 07:38:05;;;;;;;3.45;1.27;;;24.20;98.20;;;;;;7414122;19;20075;-77
2023/08/12 07:40:34;;;;;;;2.90;1.30;;;24.30;98.20;;;;;;7432974;19;20354;-78
2023/08/12 07:43:03;;;;;;;4.40;1.27;;;24.20;97.80;;;;;;7413619;19;20002;-77
2023/08/12 07:45:35;;;;;;;3.72;1.40;;;24.30;97.90;;;;;;7413914;19;20011;-77
2023/08/12 07:48:03;;;;;;;4.63;1.58;;;24.30;97.90;;;;;;7415681;19;20003;-76
2023/08/12 07:50:32;;;;;;;1.63;1.20;;;24.30;98.00;;;;;;7414159;19;20007;-77
2023/08/12 07:53:01;;;;;;;2.40;1.25;;;24.30;98.10;;;;;;7414135;19;20349;-77
2023/08/12 07:55:30;;;;;;;1.80;1.40;;;24.30;98.00;;;;;;7434498;19;20007;-76
2023/08/12 07:57:59;;;;;;;3.05;1.35;;;24.40;98.00;;;;;;7415453;19;20018;-77
2023/08/12 08:00:28;;;;;;;3.13;1.30;;;24.40;98.00;;;;;;7416675;19;20003;-78
2023/08/12 08:02:59;;;;;;;1.55;1.08;;;24.40;97.90;;;;;;7415597;19;20017;-77
2023/08/12 08:05:28;;;;;;;3.70;2.17;;;24.20;97.70;;;;;;7404617;19;20003;-77
2023/08/12 08:07:56;;;;;;;1.45;1.13;;;23.90;98.20;;;;;;7387192;19;20007;-77
2023/08/12 08:10:26;;;;;;;2.33;1.23;;;23.70;98.20;;;;;;7407518;19;20038;-77
2023/08/12 08:12:54;;;;;;;1.27;1.17;;;23.50;98.40;;;;;;7387909;19;20011;-76
2023/08/12 08:15:23;;;;;;;1.45;1.20;;;23.10;98.70;;;;;;7388518;19;20011;-78
2023/08/12 08:17:52;;;;;;;1.83;1.15;;;23.10;99.30;;;;;;7388892;19;20010;-76
2023/08/12 08:20:23;;;;;;;3.85;1.15;;;23.00;99.20;;;;;;7388796;19;20037;-78
2023/08/12 08:22:55;;;;;;;1.80;1.15;;;22.90;99.50;;;;;;7385469;19;19999;-77
2023/08/12 08:25:24;;;;;;;2.45;1.30;;;22.80;99.40;;;;;;7408479;19;20015;-77
2023/08/12 08:27:53;;;;;;;4.00;1.30;;;22.80;99.80;;;;;;7385739;19;20018;-77
2023/08/12 08:30:22;;;;;;;3.67;1.25;;;22.70;99.70;;;;;;7386198;19;20294;-78
2023/08/12 08:32:51;;;;;;;4.90;1.23;;;22.90;99.90;;;;;;7385953;19;20018;-77
2023/08/12 08:35:22;;;;;;;2.17;1.10;;;22.80;99.90;;;;;;7383844;19;20303;-77
2023/08/12 08:37:51;;;;;;;4.03;1.48;;;22.80;99.80;;;;;;7384821;19;20353;-77
2023/08/12 08:40:20;;;;;;;3.72;1.45;;;23.00;99.90;;;;;;7404996;19;20370;-77
2023/08/12 08:42:53;;;;;;;2.75;1.60;;;23.10;99.90;;;;;;7385259;19;20002;-77
2023/08/12 08:45:24;;;;;;;3.80;1.17;;;23.30;99.90;;;;;;7388597;19;20006;-77
2023/08/12 08:47:54;;;;;;;6.20;1.50;;;23.40;99.90;;;;;;7389563;19;20014;-77
2023/08/12 08:50:26;;;;;;;3.80;1.45;;;23.60;99.90;;;;;;7386563;19;20062;-77
2023/08/12 08:52:55;;;;;;;3.88;1.48;;;23.70;99.90;;;;;;7389231;19;20365;-77
2023/08/12 08:55:25;;;;;;;5.65;1.30;;;23.80;99.90;;;;;;7404482;19;20023;-77
2023/08/12 08:57:53;;;;;;;1.77;1.02;;;23.80;99.90;;;;;;7386528;19;20007;-77
2023/08/12 09:00:22;;;;;;;2.90;1.35;;;23.90;99.90;;;;;;7383532;19;20031;-78
2023/08/12 09:02:53;;;;;;;2.25;1.20;;;24.00;99.90;;;;;;7381810;19;20007;-77
2023/08/12 09:05:25;;;;;;;4.32;1.73;;;24.00;99.90;;;;;;7382709;19;20038;-77
2023/08/12 09:07:54;;;;;;;4.53;1.00;;;24.10;99.90;;;;;;7384380;19;20034;-77
2023/08/12 09:10:26;;;;;;;3.08;1.20;;;24.20;99.70;;;;;;7403863;19;20006;-78
2023/08/12 09:12:56;;;;;;;3.83;1.15;;;24.30;99.90;;;;;;7382586;19;20041;-76
2023/08/12 09:15:25;;;;;;;1.98;1.10;;;24.40;99.90;;;;;;7381737;19;20219;-77
2023/08/12 09:17:53;;;;;;;2.83;1.42;;;24.50;99.80;;;;;;7380667;19;20085;-76
2023/08/12 09:20:25;;;;;;;3.13;1.20;;;24.60;99.70;;;;;;7383124;19;20075;-77
2023/08/12 09:22:59;;;;;;;1.92;1.40;;;24.60;99.50;;;;;;7383192;19;20223;-76
2023/08/12 09:25:29;;;;;;;2.15;1.20;;;24.70;99.00;;;;;;7403889;19;20014;-76
2023/08/12 09:28:00;;;;;;;3.30;1.37;;;24.80;97.80;;;;;;7382166;19;20383;-77
2023/08/12 09:30:32;;;;;;;3.50;1.20;;;24.80;97.10;;;;;;7382770;19;20016;-77
2023/08/12 09:33:03;;;;;;;2.70;1.20;;;24.80;96.80;;;;;;7383250;19;20066;-76
2023/08/12 09:35:39;;;;;;;5.20;1.20;;;24.90;96.30;;;;;;7382997;19;20017;-76
2023/08/12 09:38:10;;;;;;;6.03;1.42;;;24.90;96.40;;;;;;7381615;19;20011;-76
2023/08/12 09:40:39;;;;;;;5.67;1.27;;;24.80;96.00;;;;;;7406117;19;20086;-76
2023/08/12 09:43:11;;;;;;;5.28;1.05;;;24.80;95.90;;;;;;7382695;19;20271;-77
2023/08/12 09:45:40;;;;;;;6.53;0.95;;;24.80;96.50;;;;;;7383190;19;20211;-78
2023/08/12 09:48:12;;;;;;;3.83;1.10;;;24.80;96.60;;;;;;7383278;19;20237;-77
2023/08/12 09:50:43;;;;;;;4.03;1.30;;;24.90;96.20;;;;;;7382244;19;20006;-77
2023/08/12 09:53:12;;;;;;;2.63;1.20;;;25.00;96.50;;;;;;7383128;19;20010;-78
2023/08/12 09:56:01;;;;;;;2.60;1.10;;;25.10;96.00;;;;;;7402411;19;20017;-78
2023/08/12 09:58:35;;;;;;;5.07;1.48;;;25.20;95.90;;;;;;7386038;19;20066;-78
2023/08/12 10:01:10;;;;;;;5.10;1.23;;;25.20;95.40;;;;;;7384615;19;20009;-79
2023/08/12 10:03:42;;;;;;;3.15;1.00;;;25.20;95.20;;;;;;7385560;19;20070;-80
2023/08/12 10:06:14;;;;;;;2.28;1.00;;;25.10;94.60;;;;;;7385629;19;20006;-78
2023/08/12 10:12:24;;;;;;;2.28;0.93;;;25.10;94.90;;;;;;7383219;19;20129;-78
2023/08/12 10:14:56;;;;;;;3.17;1.00;;;25.10;94.30;;;;;;7385915;19;20253;-79
2023/08/12 10:23:29;;;;;;;4.35;0.80;;;25.00;94.10;;;;;;7386297;19;19999;-79
2023/08/12 10:26:02;;;;;;;2.35;1.10;;;25.00;94.00;;;;;;7385373;19;20026;-79
2023/08/12 10:28:36;;;;;;;5.15;1.20;;;24.90;93.70;;;;;;7404278;19;20006;-76
2023/08/12 10:31:05;;;;;;;3.90;0.80;;;25.00;94.00;;;;;;7387747;19;20005;-75
2023/08/12 10:33:39;;;;;;;3.20;1.05;;;24.90;93.40;;;;;;7381268;19;19999;-74
2023/08/12 10:36:08;;;;;;;3.63;1.13;;;25.00;93.50;;;;;;7380880;19;20009;-74
2023/08/12 10:38:41;;;;;;;5.20;1.20;;;24.90;93.80;;;;;;7382043;19;20006;-75
2023/08/12 10:41:20;;;;;;;6.82;1.23;;;25.00;94.20;;;;;;7381172;19;20003;-76
2023/08/12 10:43:56;;;;;;;3.25;1.20;;;25.00;94.30;;;;;;7381320;19;19999;-78
2023/08/12 10:46:29;;;;;;;1.88;1.00;;;25.00;94.30;;;;;;7406687;19;20007;-77
2023/08/12 10:49:05;;;;;;;3.25;0.70;;;25.10;93.70;;;;;;7391452;19;20042;-77
2023/08/12 10:51:44;;;;;;;3.83;0.88;;;25.10;93.10;;;;;;7394745;19;20041;-78
2023/08/12 10:54:29;;;;;;;2.85;0.60;;;25.20;93.30;;;;;;7388878;19;20023;-77
2023/08/12 10:57:11;;;;;;;2.38;1.90;;;25.30;92.50;;;;;;7384133;19;20027;-77
2023/08/12 10:59:56;;;;;;;;;;;25.40;92.80;;;;;;7384359;19;20015;-78
2023/08/12 11:02:33;;;;;;;1.75;0.82;;;25.50;92.80;;;;;;7383661;19;19917;-79
2023/08/12 11:05:05;;;;;;;2.63;0.73;;;25.80;92.40;;;;;;7384144;19;20071;-77
2023/08/12 11:07:42;;;;;;;1.88;0.90;;;25.90;92.00;;;;;;7404792;19;20204;-79
2023/08/12 11:10:19;;;;;;;3.20;0.85;;;25.90;90.90;;;;;;7385418;19;20023;-79
2023/08/12 11:12:57;;;;;;;2.40;0.80;;;25.80;90.80;;;;;;7384015;19;20007;-79
2023/08/12 11:15:34;;;;;;;3.92;0.98;;;25.90;90.80;;;;;;7382041;19;20031;-78
2023/08/12 11:18:08;;;;;;;2.13;0.93;;;26.00;91.20;;;;;;7384225;19;20029;-77
2023/08/12 11:20:37;;;;;;;6.15;1.08;;;26.00;91.20;;;;;;7384272;19;20031;-77
2023/08/12 11:23:07;;;;;;;4.78;1.40;;;26.00;91.60;;;;;;7382695;19;20034;-78
2023/08/12 11:25:40;;;;;;;7.43;1.00;;;26.00;91.30;;;;;;7402055;19;19999;-78
2023/08/12 11:28:12;;;;;;;2.40;1.00;;;26.00;91.80;;;;;;7383699;19;20003;-79
2023/08/12 11:30:45;;;;;;;1.17;1.00;;;26.10;91.80;;;;;;7382034;19;20009;-78
2023/08/12 11:33:13;;;;;;;4.68;1.05;;;26.00;91.30;;;;;;7383334;19;20050;-78
2023/08/12 11:35:45;;;;;;;2.67;0.85;;;26.10;91.20;;;;;;7383776;19;20263;-79
2023/08/12 11:38:14;;;;;;;2.20;1.05;;;26.10;91.10;;;;;;7383805;19;20035;-79
2023/08/12 11:40:46;;;;;;;5.20;1.05;;;26.10;90.90;;;;;;7382242;19;20006;-77
2023/08/12 11:43:14;;;;;;;2.22;1.10;;;26.10;90.70;;;;;;7411461;19;20007;-77
2023/08/12 11:45:45;;;;;;;2.10;1.10;;;26.10;90.80;;;;;;7392175;19;20007;-78
2023/08/12 11:48:14;;;;;;;3.22;1.17;;;26.10;91.00;;;;;;7390418;19;20003;-78
2023/08/12 11:50:54;;;;;;;3.30;1.00;;;26.00;90.60;;;;;;7389069;19;20366;-79
2023/08/12 11:53:23;;;;;;;2.00;0.98;;;26.10;91.10;;;;;;7387578;19;20007;-77
2023/08/12 12:53:44;;;;;;;3.25;1.42;;;26.80;75.60;;;;;;7381069;19;20301;-85
2023/08/12 12:59:03;;;;;;;5.28;1.50;;;27.20;74.10;;;;;;7384228;19;20010;-79
2023/08/12 13:01:31;;;;;;;3.40;1.65;;;27.20;74.40;;;;;;7404993;19;20006;-79
2023/08/12 13:04:00;;;;;;;5.82;1.38;;;27.00;75.20;;;;;;7385632;19;20006;-80
2023/08/12 13:19:52;;;;;;;6.60;1.55;;;27.50;72.90;;;;;;7400514;19;20037;-79
2023/08/12 13:22:21;;;;;;;3.72;1.40;;;27.60;69.00;;;;;;7386437;19;20013;-79
2023/08/12 13:24:50;;;;;;;2.65;1.23;;;27.60;67.20;;;;;;7386245;19;20030;-78
2023/08/12 13:27:19;;;;;;;5.68;1.60;;;27.60;67.90;;;;;;7385675;19;20040;-78
2023/08/12 13:29:48;;;;;;;5.88;2.30;;;27.60;68.40;;;;;;7385092;19;20018;-76
2023/08/12 13:32:18;;;;;;;4.35;1.67;;;27.60;68.10;;;;;;7385687;19;20032;-79
2023/08/12 13:34:50;;;;;;;3.13;1.50;;;27.50;67.30;;;;;;7381520;19;20002;-77
2023/08/12 13:37:19;;;;;;;4.28;1.38;;;27.50;68.30;;;;;;7403955;19;20684;-77
2023/08/12 13:39:47;;;;;;;4.00;1.75;;;27.60;67.80;;;;;;7384256;19;20220;-78
2023/08/12 13:42:16;;;;;;;3.13;1.55;;;27.60;68.00;;;;;;7384502;19;20028;-77
2023/08/12 13:44:48;;;;;;;4.90;1.60;;;27.70;67.40;;;;;;7384651;19;20013;-77
2023/08/12 13:47:16;;;;;;;4.38;1.40;;;27.90;67.30;;;;;;7383680;19;20024;-77
2023/08/12 13:49:45;;;;;;;4.80;1.70;;;27.80;67.20;;;;;;7382793;19;20232;-76
2023/08/12 13:52:16;;;;;;;4.68;1.55;;;27.70;68.20;;;;;;7404661;19;20353;-77
2023/08/12 13:54:45;;;;;;;7.72;1.67;;;27.60;66.80;;;;;;7383348;19;20249;-78
2023/08/12 13:57:14;;;;;;;3.75;1.40;;;27.50;66.30;;;;;;7382245;19;20353;-77
2023/08/12 13:59:44;;;;;;;4.68;1.77;;;27.60;67.90;;;;;;7383461;19;20015;-76
2023/08/12 14:02:13;;;;;;;8.90;1.80;;;27.60;67.50;;;;;;7384051;19;20003;-76
2023/08/12 14:04:41;;;;;;;4.85;1.77;;;27.40;66.00;;;;;;7380939;19;20014;-77
2023/08/12 14:07:10;;;;;;;6.05;1.77;;;27.40;66.60;;;;;;7404933;19;20011;-77
2023/08/12 14:09:41;;;;;;;7.60;1.70;;;27.30;66.20;;;;;;7383428;19;20010;-78
2023/08/12 14:12:10;;;;;;;5.00;1.70;;;27.50;66.50;;;;;;7383665;19;20002;-77
2023/08/12 14:14:40;;;;;;;7.05;1.80;;;27.60;65.60;;;;;;7385763;19;20007;-78
2023/08/12 14:17:13;;;;;;;6.68;1.55;;;27.60;65.70;;;;;;7385003;19;20006;-76
2023/08/12 14:19:42;;;;;;;7.68;1.88;;;27.50;65.70;;;;;;7381824;19;20346;-76
2023/08/12 14:22:11;;;;;;;6.90;1.98;;;27.50;65.70;;;;;;7402233;19;20069;-78
2023/08/12 14:24:43;;;;;;;6.78;1.70;;;27.60;64.10;;;;;;7382887;19;20007;-78
2023/08/12 14:27:12;;;;;;;4.25;1.35;;;27.60;65.30;;;;;;7383035;19;20014;-78
2023/08/12 14:29:41;;;;;;;7.13;1.55;;;27.70;63.50;;;;;;7382493;19;20023;-76
2023/08/12 14:32:09;;;;;;;5.38;1.48;;;27.70;64.10;;;;;;7383165;19;20014;-78
2023/08/12 14:34:38;;;;;;;5.78;1.70;;;27.80;64.90;;;;;;7402382;19;20011;-76
2023/08/12 14:37:08;;;;;;;4.35;1.70;;;27.80;64.30;;;;;;7379945;19;20007;-77
2023/08/12 14:39:36;;;;;;;8.95;1.67;;;27.80;64.20;;;;;;7382862;19;20003;-78
2023/08/12 14:42:09;;;;;;;5.20;2.05;;;27.80;64.40;;;;;;7380813;19;20011;-78
2023/08/12 14:44:38;;;;;;;4.90;1.80;;;27.80;64.90;;;;;;7381088;19;20019;-76
2023/08/12 14:47:08;;;;;;;11.30;1.90;;;27.70;64.20;;;;;;7383711;19;20014;-77
2023/08/12 14:49:36;;;;;;;7.53;1.77;;;27.70;64.10;;;;;;7403755;19;20014;-78
2023/08/12 14:52:06;;;;;;;4.20;1.98;;;27.70;63.90;;;;;;7386855;19;20028;-78
2023/08/12 14:54:34;;;;;;;5.72;2.00;;;27.80;64.00;;;;;;7388084;19;20035;-77
2023/08/12 14:57:03;;;;;;;6.47;1.85;;;27.80;64.70;;;;;;7382053;19;20015;-77
2023/08/12 14:59:34;;;;;;;8.20;2.08;;;27.90;65.40;;;;;;7381986;19;20003;-78
2023/08/12 15:02:03;;;;;;;3.35;1.67;;;28.10;63.80;;;;;;7383195;19;20007;-77
2023/08/12 15:04:32;;;;;;;6.95;2.05;;;28.10;63.60;;;;;;7403214;19;20018;-78
2023/08/12 15:07:01;;;;;;;6.32;1.75;;;28.10;63.80;;;;;;7382601;19;20023;-79
2023/08/12 15:09:29;;;;;;;9.25;2.05;;;28.30;63.10;;;;;;7382671;19;20268;-78
2023/08/12 15:11:58;;;;;;;5.45;1.80;;;28.30;63.20;;;;;;7382134;19;20394;-76
2023/08/12 15:14:27;;;;;;;4.95;1.92;;;28.40;63.40;;;;;;7380707;19;20020;-78
2023/08/12 15:16:58;;;;;;;5.07;1.95;;;28.40;62.20;;;;;;7384744;19;20015;-77
2023/08/12 15:19:27;;;;;;;7.97;2.28;;;28.20;61.90;;;;;;7411150;19;20095;-78
2023/08/12 15:21:55;;;;;;;5.03;1.98;;;28.20;61.10;;;;;;7388668;19;20011;-77
2023/08/12 15:24:24;;;;;;;9.10;2.05;;;28.10;61.10;;;;;;7388321;19;20059;-77
2023/08/12 15:26:53;;;;;;;4.97;1.77;;;28.10;61.30;;;;;;7387254;19;20016;-77
2023/08/12 15:29:22;;;;;;;8.05;1.90;;;28.20;60.60;;;;;;7389398;19;20007;-77
2023/08/12 15:31:50;;;;;;;8.90;1.98;;;28.30;61.40;;;;;;7386572;19;20233;-77
2023/08/12 15:34:21;;;;;;;8.50;1.90;;;28.40;62.00;;;;;;7410879;19;20015;-78
2023/08/12 15:36:50;;;;;;;11.70;2.67;;;28.50;61.90;;;;;;7386668;19;20031;-78
2023/08/12 15:39:19;;;;;;;6.20;1.70;;;28.60;62.40;;;;;;7389899;19;20003;-78
2023/08/12 15:41:48;;;;;;;5.60;2.08;;;28.70;61.10;;;;;;7388016;19;20002;-78
2023/08/12 15:44:18;;;;;;;7.13;2.00;;;28.80;60.80;;;;;;7389174;19;20013;-77
2023/08/12 15:46:47;;;;;;;11.48;2.22;;;28.80;60.00;;;;;;7388932;19;20002;-77
2023/08/12 15:49:15;;;;;;;7.25;1.77;;;28.80;59.50;;;;;;7406773;19;20028;-77
2023/08/12 15:51:47;;;;;;;9.23;2.75;;;28.80;59.70;;;;;;7388452;19;20017;-78
2023/08/12 15:54:15;;;;;;;8.80;1.90;;;28.80;59.40;;;;;;7390512;19;20021;-76
2023/08/12 15:56:44;;;;;;;4.63;1.80;;;28.70;59.70;;;;;;7387751;19;20010;-77
2023/08/12 15:59:13;;;;;;;5.38;1.80;;;28.60;58.70;;;;;;7388349;19;20011;-77
2023/08/12 16:01:42;;;;;;;6.57;1.77;;;28.50;59.20;;;;;;7385238;19;20033;-77
2023/08/12 16:04:11;;;;;;;3.42;1.77;;;28.60;57.70;;;;;;7407719;19;20299;-78
2023/08/12 16:06:39;;;;;;;4.88;1.77;;;28.80;56.30;;;;;;7387905;19;20032;-79
2023/08/12 16:09:11;;;;;;;13.65;2.03;;;29.20;55.80;;;;;;7387278;19;20383;-79
2023/08/12 16:11:39;;;;;;;7.38;1.90;;;29.50;54.90;;;;;;7387599;19;20019;-77
2023/08/12 16:14:08;;;;;;;5.68;1.80;;;29.60;55.20;;;;;;7388355;19;20018;-77
2023/08/12 16:16:37;;;;;;;6.57;1.90;;;30.10;54.90;;;;;;7411070;19;20011;-77
2023/08/12 16:19:06;;;;;;;9.90;1.98;;;30.90;54.30;;;;;;7387685;19;20023;-79
2023/08/12 16:21:35;;;;;;;6.88;1.75;;;31.70;53.80;;;;;;7388617;19;20026;-80
2023/08/12 16:24:04;;;;;;;6.95;1.70;;;31.60;52.90;;;;;;7386691;19;20011;-77
2023/08/12 16:26:35;;;;;;;4.13;1.75;;;31.20;53.40;;;;;;7385876;19;19999;-78
2023/08/12 16:29:04;;;;;;;7.47;2.08;;;31.10;53.80;;;;;;7390126;19;20014;-78
2023/08/12 16:31:33;;;;;;;6.13;2.13;;;31.50;53.80;;;;;;7411012;19;20022;-77
2023/08/12 16:34:01;;;;;;;10.55;2.03;;;32.00;52.90;;;;;;7386743;19;20375;-78
2023/08/12 16:36:32;;;;;;;6.70;2.03;;;32.20;53.10;;;;;;7387039;19;20024;-77
2023/08/12 16:39:00;;;;;;;6.87;1.90;;;32.30;52.70;;;;;;7389511;19;20027;-78
2023/08/12 16:41:29;;;;;;;6.07;1.92;;;32.90;51.00;;;;;;7388285;19;20006;-78
2023/08/12 16:44:00;;;;;;;7.60;2.03;;;33.40;50.70;;;;;;7393145;19;20014;-77
2023/08/12 16:46:29;;;;;;;8.65;1.60;;;33.60;50.60;;;;;;7425111;19;20007;-78
2023/08/12 16:48:58;;;;;;;3.33;1.83;;;33.60;50.50;;;;;;7404617;19;20010;-78
2023/08/12 16:51:28;;;;;;;6.47;1.63;;;33.40;50.60;;;;;;7404929;19;20044;-77
2023/08/12 16:53:57;;;;;;;11.07;2.13;;;33.00;50.50;;;;;;7397087;19;20014;-78
2023/08/12 16:56:25;;;;;;;7.88;1.77;;;32.70;51.40;;;;;;7389229;19;20043;-78
2023/08/12 16:58:54;;;;;;;10.52;2.30;;;32.40;51.80;;;;;;7387078;19;20007;-77
2023/08/12 17:01:26;;;;;;;9.02;1.63;;;31.80;52.00;;;;;;7409607;19;20010;-78
2023/08/12 17:03:54;;;;;;;7.22;1.95;;;31.30;53.00;;;;;;7388348;19;20023;-78
2023/08/12 17:06:23;;;;;;;8.60;1.80;;;30.80;53.10;;;;;;7387099;19;20002;-78
2023/08/12 17:08:52;;;;;;;11.65;2.00;;;30.50;54.40;;;;;;7389299;19;20020;-78
2023/08/12 17:11:21;;;;;;;5.07;2.17;;;30.10;55.00;;;;;;7386634;19;20351;-78
2023/08/12 17:13:50;;;;;;;5.40;1.70;;;30.00;55.60;;;;;;7384152;19;20014;-78
2023/08/12 17:16:19;;;;;;;7.68;1.88;;;29.80;56.10;;;;;;7405463;19;20023;-78
2023/08/12 17:18:50;;;;;;;6.18;2.10;;;29.60;55.90;;;;;;7385131;19;20060;-77
2023/08/12 17:21:19;;;;;;;7.90;2.15;;;29.40;56.20;;;;;;7386142;19;20006;-78
2023/08/12 17:23:48;;;;;;;7.28;1.88;;;29.00;56.90;;;;;;7386637;19;20003;-77
2023/08/12 17:26:16;;;;;;;6.25;1.80;;;28.90;57.20;;;;;;7386482;19;20031;-77
2023/08/12 17:28:45;;;;;;;10.82;2.03;;;28.60;57.70;;;;;;7383579;19;20358;-78
2023/08/12 17:31:15;;;;;;;7.93;1.80;;;28.40;58.10;;;;;;7411904;19;20015;-78
2023/08/12 17:33:44;;;;;;;9.32;2.58;;;28.40;58.50;;;;;;7386047;19;20010;-78
2023/08/12 17:36:15;;;;;;;5.00;2.00;;;28.30;59.20;;;;;;7386733;19;20024;-78
2023/08/12 17:38:44;;;;;;;5.72;1.73;;;28.20;58.80;;;;;;7381324;19;20003;-77
2023/08/12 17:41:12;;;;;;;13.00;2.40;;;28.20;59.30;;;;;;7383234;19;20010;-77
2023/08/12 17:43:43;;;;;;;5.85;1.85;;;28.20;59.60;;;;;;7383560;19;20014;-77
2023/08/12 17:46:13;;;;;;;8.85;1.90;;;28.10;59.90;;;;;;7405277;19;20034;-77
2023/08/12 17:48:42;;;;;;;6.63;2.05;;;28.10;59.50;;;;;;7385728;19;20220;-79
2023/08/12 17:51:12;;;;;;;7.43;1.92;;;28.10;59.50;;;;;;7384907;19;20020;-76
2023/08/12 17:53:45;;;;;;;9.15;1.88;;;28.10;59.80;;;;;;7386360;19;20303;-77
2023/08/12 17:56:14;;;;;;;6.07;1.85;;;28.10;60.20;;;;;;7385683;19;20015;-76
2023/08/12 17:58:43;;;;;;;5.07;1.95;;;28.10;60.30;;;;;;7382516;19;20100;-79
2023/08/12 18:01:12;;;;;;;10.52;2.33;;;28.20;60.60;;;;;;7403837;19;20020;-78
2023/08/12 18:03:41;;;;;;;7.53;1.92;;;28.20;60.50;;;;;;7385391;19;19999;-78
2023/08/12 18:06:10;;;;;;;7.32;1.98;;;28.10;61.10;;;;;;7390452;19;20003;-77
2023/08/12 18:08:40;;;;;;;7.13;2.15;;;28.00;61.60;;;;;;7385883;19;20085;-78
2023/08/12 18:11:11;;;;;;;5.15;1.60;;;28.00;60.80;;;;;;7383970;19;20006;-77
2023/08/12 18:13:40;;;;;;;10.50;2.05;;;28.00;61.10;;;;;;7398772;19;20024;-77
2023/08/12 18:16:09;;;;;;;10.07;2.28;;;27.90;61.60;;;;;;7405382;19;20007;-77
2023/08/12 18:18:37;;;;;;;9.43;2.25;;;27.80;61.60;;;;;;7383505;19;20002;-77
2023/08/12 18:21:06;;;;;;;11.85;1.83;;;27.70;61.90;;;;;;7383245;19;20002;-77
2023/08/12 18:23:35;;;;;;;12.45;2.10;;;27.50;63.00;;;;;;7382272;19;20019;-78
2023/08/12 18:26:03;;;;;;;8.40;2.22;;;27.40;63.20;;;;;;7383469;19;20024;-77
2023/08/12 18:28:35;;;;;;;8.93;2.25;;;27.40;63.60;;;;;;7404746;19;20031;-78
2023/08/12 18:31:03;;;;;;;8.70;2.13;;;27.30;63.40;;;;;;7382920;19;20266;-77
2023/08/12 18:33:32;;;;;;;7.93;2.22;;;27.30;63.90;;;;;;7383265;19;20082;-78
2023/08/12 18:36:01;;;;;;;10.27;2.33;;;27.30;66.20;;;;;;7384608;19;20389;-78
2023/08/12 18:38:29;;;;;;;7.38;1.90;;;27.20;67.20;;;;;;7383994;19;20010;-79
2023/08/12 18:41:22;;;;;;;12.25;2.22;;;27.10;66.50;;;;;;7386340;19;20014;-78
2023/08/12 18:43:53;;;;;;;12.95;2.13;;;27.10;69.40;;;;;;7387623;19;20014;-78
2023/08/12 18:46:22;;;;;;;9.10;1.98;;;27.00;71.60;;;;;;7415423;19;20011;-78
2023/08/12 18:48:50;;;;;;;10.50;2.45;;;26.80;71.90;;;;;;7398963;19;20011;-78
2023/08/12 18:51:20;;;;;;;11.15;2.50;;;26.70;71.80;;;;;;7399321;19;20002;-77
2023/08/12 18:53:48;;;;;;;9.85;2.28;;;26.60;72.50;;;;;;7383019;19;20003;-78
2023/08/12 18:56:17;;;;;;;10.02;2.42;;;26.50;73.30;;;;;;7383520;19;20027;-77
2023/08/12 18:58:46;;;;;;;10.50;2.58;;;26.40;72.80;;;;;;7382592;19;20018;-77
2023/08/12 19:01:17;;;;;;;5.20;2.08;;;26.30;73.30;;;;;;7402269;19;20013;-76
2023/08/12 19:03:46;;;;;;;7.90;2.20;;;26.20;74.10;;;;;;7381195;19;20011;-78
2023/08/12 19:06:15;;;;;;;7.90;2.17;;;26.10;74.40;;;;;;7383260;19;20034;-77
2023/08/12 19:08:45;;;;;;;8.38;2.55;;;25.90;75.20;;;;;;7381398;19;20014;-77
2023/08/12 19:11:13;;;;;;;10.50;3.20;;;25.90;75.00;;;;;;7380445;19;20010;-77
2023/08/12 19:13:42;;;;;;;9.93;2.22;;;25.80;75.50;;;;;;7380470;19;20007;-77
2023/08/12 19:16:11;;;;;;;9.40;1.98;;;25.80;75.70;;;;;;7402264;19;20006;-77
2023/08/12 19:18:42;;;;;;;10.20;2.17;;;25.70;76.30;;;;;;7381070;19;20303;-78
2023/08/12 19:21:10;;;;;;;;;;;25.60;76.60;;;;;;7381888;19;20044;-77
2023/08/12 19:23:39;;;;;;;25.52;4.13;;;25.60;77.20;;;;;;7383358;19;19919;-78
2023/08/12 19:26:08;;;;;;;24.05;4.32;;;25.50;77.10;;;;;;7382670;19;20204;-78
2023/08/12 19:28:37;;;;;;;15.07;3.10;;;25.50;77.20;;;;;;7401543;19;20032;-77
2023/08/12 19:31:06;;;;;;;13.30;2.45;;;25.50;77.30;;;;;;7381525;19;20019;-78
2023/08/12 19:33:34;;;;;;;10.10;2.70;;;25.50;76.30;;;;;;7380535;19;20007;-77
2023/08/12 19:36:06;;;;;;;14.55;2.75;;;25.30;76.10;;;;;;7379021;19;20007;-78
2023/08/12 19:38:35;;;;;;;8.20;2.00;;;25.20;76.90;;;;;;7380194;19;20007;-77
2023/08/12 19:41:04;;;;;;;6.68;2.17;;;25.20;77.40;;;;;;7381052;19;20241;-77
2023/08/12 19:43:33;;;;;;;16.23;2.38;;;25.10;77.80;;;;;;7400846;19;20006;-77
2023/08/12 19:46:01;;;;;;;12.82;2.53;;;25.10;78.10;;;;;;7381052;19;20014;-78
2023/08/12 19:48:30;;;;;;;9.77;2.60;;;25.00;77.60;;;;;;7381012;19;20067;-78
2023/08/12 19:50:59;;;;;;;9.07;2.20;;;25.00;77.80;;;;;;7379994;19;20102;-78
2023/08/12 19:53:30;;;;;;;11.35;2.28;;;24.90;78.30;;;;;;7379838;19;20389;-77
2023/08/12 19:55:59;;;;;;;9.00;2.50;;;24.90;79.10;;;;;;7378674;19;20003;-81
2023/08/12 19:58:28;;;;;;;8.80;2.58;;;24.90;79.20;;;;;;7400441;19;20013;-77
2023/08/12 20:00:57;;;;;;;9.40;2.28;;;25.00;78.60;;;;;;7379297;19;20397;-78
2023/08/12 20:03:26;;;;;;;6.43;2.38;;;24.90;78.60;;;;;;7387801;19;20003;-78
2023/08/12 20:05:54;;;;;;;13.93;2.67;;;24.90;78.50;;;;;;7387096;19;20009;-78
2023/08/12 20:08:23;;;;;;;12.80;2.45;;;24.90;78.70;;;;;;7385592;19;20006;-77
2023/08/12 20:10:57;;;;;;;10.27;2.55;;;24.90;78.30;;;;;;7387786;19;20011;-78
2023/08/12 20:13:26;;;;;;;12.35;2.28;;;24.80;78.50;;;;;;7406498;19;20003;-78
2023/08/12 20:15:57;;;;;;;6.32;2.10;;;24.70;79.10;;;;;;7385659;19;20346;-78
2023/08/12 20:18:26;;;;;;;12.57;2.30;;;24.70;79.10;;;;;;7384125;19;20016;-77
2023/08/12 20:20:55;;;;;;;11.05;2.45;;;24.60;79.40;;;;;;7386257;19;20003;-78
2023/08/12 20:23:24;;;;;;;11.80;2.17;;;24.60;79.80;;;;;;7385652;19;20007;-78
2023/08/12 20:25:55;;;;;;;14.23;2.35;;;24.50;80.00;;;;;;7386444;19;20003;-77
2023/08/12 20:28:24;;;;;;;7.82;2.47;;;24.50;79.90;;;;;;7404844;19;20003;-77
2023/08/12 20:30:53;;;;;;;6.93;2.25;;;24.60;80.50;;;;;;7385410;19;20014;-77
2023/08/12 20:33:21;;;;;;;8.38;2.45;;;24.60;80.60;;;;;;7387492;19;20007;-78
2023/08/12 20:35:50;;;;;;;11.90;2.67;;;24.50;79.90;;;;;;7385428;19;20019;-77
2023/08/12 20:38:19;;;;;;;11.18;2.50;;;24.50;79.80;;;;;;7385587;19;20276;-79
2023/08/12 20:40:48;;;;;;;9.50;2.80;;;24.50;80.30;;;;;;7393916;19;20018;-77
2023/08/12 20:43:19;;;;;;;8.98;2.42;;;24.40;80.10;;;;;;7425830;19;20023;-78
2023/08/12 20:45:48;;;;;;;;;;;24.40;80.40;;;;;;7400093;19;20021;-77
2023/08/12 20:48:17;;;;;;;12.48;2.67;;;24.40;80.80;;;;;;7400902;19;20219;-77
2023/08/12 20:50:45;;;;;;;8.13;2.42;;;24.30;81.00;;;;;;7388112;19;20077;-78
2023/08/12 20:53:15;;;;;;;10.70;2.53;;;24.30;81.60;;;;;;7384374;19;20069;-78
2023/08/12 20:55:43;;;;;;;10.38;2.85;;;24.30;81.60;;;;;;7386347;19;20019;-77
2023/08/12 20:58:12;;;;;;;11.88;2.65;;;24.30;81.40;;;;;;7406380;19;20014;-77
2023/08/12 21:00:46;;;;;;;6.93;2.30;;;24.30;81.30;;;;;;7385704;19;20118;-78
2023/08/12 21:03:17;;;;;;;20.48;2.92;;;24.20;81.50;;;;;;7386874;19;20016;-78
2023/08/12 21:05:50;;;;;;;;;;;24.30;81.70;;;;;;7387257;19;20003;-78
2023/08/12 21:08:19;;;;;;;11.93;3.00;;;24.30;81.60;;;;;;7386253;19;20239;-77
2023/08/12 21:10:54;;;;;;;7.82;2.80;;;24.30;81.70;;;;;;7384205;19;20025;-78
2023/08/12 21:13:22;;;;;;;12.90;2.60;;;24.30;81.80;;;;;;7405470;19;20007;-78
2023/08/12 21:15:54;;;;;;;6.30;2.40;;;24.20;81.60;;;;;;7384889;19;20003;-77
2023/08/12 21:18:22;;;;;;;;;;;24.20;82.20;;;;;;7386240;19;20011;-78
2023/08/12 21:20:51;;;;;;;9.35;2.72;;;24.10;82.00;;;;;;7385142;19;19922;-77
2023/08/12 21:23:20;;;;;;;10.05;2.72;;;24.10;82.30;;;;;;7385774;19;20246;-77
2023/08/12 21:25:49;;;;;;;6.40;2.28;;;24.00;82.30;;;;;;7383832;19;20015;-78